Aviation Digital Data Service (ADDS)

Output produced by METARs form (0343 UTC 23 November 2017)
found at http://www.aviationweather.gov/adds/metars/
 
TAF TBPB 222300Z 2300/2324 10010KT 9999 SCT020